createdAt,value
2023-05-08T00:00:40.681Z,18.08
2023-05-08T00:03:43.204Z,18.05
2023-05-08T00:06:46.018Z,18.00
2023-05-08T00:09:48.386Z,18.02
2023-05-08T00:12:50.767Z,18.02
2023-05-08T00:15:53.124Z,18.09
2023-05-08T00:18:55.614Z,18.09
2023-05-08T00:21:57.938Z,18.09
2023-05-08T00:25:00.374Z,18.03
2023-05-08T00:28:02.942Z,18.05
2023-05-08T00:31:05.298Z,18.01
2023-05-08T00:34:07.639Z,18.06
2023-05-08T00:37:28.382Z,17.99
2023-05-08T00:40:30.749Z,18.05
2023-05-08T00:43:33.932Z,18.05
2023-05-08T00:46:36.940Z,18.04
2023-05-08T00:49:39.546Z,18.00
2023-05-08T00:52:42.098Z,18.03
2023-05-08T00:55:44.792Z,17.90
2023-05-08T00:58:48.209Z,17.99
2023-05-08T01:01:50.981Z,17.96
2023-05-08T01:04:54.104Z,17.96
2023-05-08T01:07:56.638Z,17.91
2023-05-08T01:11:11.924Z,17.90
2023-05-08T01:14:23.424Z,17.96
2023-05-08T01:17:39.203Z,17.97
2023-05-08T01:20:59.621Z,17.95
2023-05-08T01:24:13.957Z,17.94
2023-05-08T01:27:28.232Z,17.95
2023-05-08T01:30:54.353Z,17.92
2023-05-08T01:34:03.234Z,17.85
2023-05-08T01:37:11.713Z,17.93
2023-05-08T01:40:23.282Z,17.94
2023-05-08T01:43:32.280Z,17.93
2023-05-08T01:46:35.040Z,17.87
2023-05-08T01:49:43.743Z,17.91
2023-05-08T01:52:50.700Z,17.92
2023-05-08T01:55:57.507Z,17.90
2023-05-08T01:59:01.423Z,17.88
2023-05-08T02:02:04.121Z,17.91
2023-05-08T02:05:07.293Z,17.80
2023-05-08T02:08:12.270Z,17.90
2023-05-08T02:11:15.698Z,17.91
2023-05-08T02:14:20.371Z,17.91
2023-05-08T02:17:23.770Z,17.91
2023-05-08T02:20:27.090Z,17.90
2023-05-08T02:23:30.042Z,17.73
2023-05-08T02:26:33.333Z,17.89
2023-05-08T02:29:36.430Z,17.89
2023-05-08T02:32:39.208Z,17.90
2023-05-08T02:35:44.024Z,17.80
2023-05-08T02:38:49.194Z,17.86
2023-05-08T02:41:51.603Z,17.72
2023-05-08T02:44:54.065Z,17.68
2023-05-08T02:48:20.557Z,17.68
2023-05-08T02:51:44.939Z,17.88
2023-05-08T02:55:07.137Z,17.88
2023-05-08T02:58:41.086Z,17.88
2023-05-08T03:01:54.190Z,17.89
2023-05-08T03:05:00.307Z,17.89
2023-05-08T03:08:08.757Z,17.84
2023-05-08T03:11:17.038Z,17.80
2023-05-08T03:14:22.161Z,17.75
2023-05-08T03:17:25.818Z,17.83
2023-05-08T03:20:32.537Z,17.91
2023-05-08T03:23:37.447Z,17.76
2023-05-08T03:26:39.900Z,17.91
2023-05-08T03:29:42.302Z,17.88
2023-05-08T03:32:47.034Z,17.86
2023-05-08T03:35:49.508Z,17.92
2023-05-08T03:38:52.178Z,17.89
2023-05-08T03:41:56.109Z,17.93
2023-05-08T03:44:59.570Z,17.91
2023-05-08T03:48:04.338Z,17.93
2023-05-08T03:51:07.503Z,17.94
2023-05-08T03:54:12.771Z,17.83
2023-05-08T03:57:15.447Z,17.89
2023-05-08T04:00:24.985Z,17.89
2023-05-08T04:03:30.727Z,17.94
2023-05-08T04:06:50.496Z,17.94
2023-05-08T04:10:00.877Z,17.93
2023-05-08T04:13:07.775Z,17.98
2023-05-08T04:16:17.842Z,17.92
2023-05-08T04:19:27.767Z,18.00
2023-05-08T04:22:33.359Z,18.02
2023-05-08T04:25:37.475Z,17.97
2023-05-08T04:28:40.881Z,17.99
2023-05-08T04:31:44.090Z,18.09
2023-05-08T04:34:47.037Z,18.05
2023-05-08T04:37:49.846Z,18.10
2023-05-08T04:40:54.763Z,18.11
2023-05-08T04:43:58.321Z,18.11
2023-05-08T04:47:00.854Z,18.11
2023-05-08T04:50:03.629Z,18.04
2023-05-08T04:53:07.935Z,18.08
2023-05-08T04:56:10.532Z,17.97
2023-05-08T04:59:14.781Z,18.08
2023-05-08T05:02:18.751Z,18.01
2023-05-08T05:05:22.334Z,18.16
2023-05-08T05:08:25.703Z,18.12
2023-05-08T05:11:29.394Z,18.13
2023-05-08T05:14:32.065Z,18.18
2023-05-08T05:17:35.490Z,18.23
2023-05-08T05:20:38.437Z,18.19
2023-05-08T05:23:41.459Z,18.28
2023-05-08T05:26:44.427Z,18.20
2023-05-08T05:29:48.023Z,18.19
2023-05-08T05:32:50.864Z,18.35
2023-05-08T05:35:53.591Z,18.26
2023-05-08T05:39:00.490Z,18.37
2023-05-08T05:42:03.288Z,18.41
2023-05-08T05:45:06.603Z,18.36
2023-05-08T05:48:09.550Z,18.52
2023-05-08T05:51:12.430Z,18.56
2023-05-08T05:54:15.241Z,18.68
2023-05-08T05:57:17.905Z,18.63
2023-05-08T06:00:21.476Z,18.70
2023-05-08T06:03:28.834Z,18.82
2023-05-08T06:11:03.864Z,18.85
2023-05-08T06:17:54.495Z,18.82
2023-05-08T06:20:58.537Z,19.15
2023-05-08T06:24:01.101Z,19.28
2023-05-08T06:27:05.505Z,19.34
2023-05-08T06:30:10.830Z,19.42
2023-05-08T06:33:13.297Z,19.50
2023-05-08T06:36:17.895Z,19.55
2023-05-08T06:39:20.372Z,19.70
2023-05-08T06:42:22.767Z,19.92
2023-05-08T06:45:26.436Z,20.16
2023-05-08T06:48:29.495Z,20.27
2023-05-08T06:51:31.909Z,20.54
2023-05-08T06:54:34.286Z,20.76
2023-05-08T06:57:36.898Z,21.06
2023-05-08T07:00:39.215Z,21.12
2023-05-08T07:03:44.204Z,21.27
2023-05-08T07:06:46.536Z,21.50
2023-05-08T07:09:49.102Z,21.71
2023-05-08T07:12:51.875Z,21.78
2023-05-08T07:15:55.397Z,21.64
2023-05-08T07:18:58.086Z,21.63
2023-05-08T07:22:00.964Z,21.82
2023-05-08T07:25:04.825Z,21.95
2023-05-08T07:28:08.291Z,22.45
2023-05-08T07:31:11.433Z,22.74
2023-05-08T07:34:14.878Z,23.00
2023-05-08T07:37:17.232Z,23.16
2023-05-08T07:40:19.671Z,23.29
2023-05-08T07:43:22.030Z,23.29
2023-05-08T07:46:24.389Z,23.37
2023-05-08T07:49:26.884Z,23.31
2023-05-08T07:52:58.195Z,23.29
2023-05-08T07:56:00.975Z,23.50
2023-05-08T07:59:03.551Z,23.30
2023-05-08T08:02:06.323Z,23.15
2023-05-08T08:05:09.422Z,23.34
2023-05-08T08:08:11.860Z,23.12
2023-05-08T08:11:14.296Z,22.94
2023-05-08T08:14:16.968Z,22.75
2023-05-08T08:17:20.242Z,22.62
2023-05-08T08:20:23.960Z,22.43
2023-05-08T08:23:26.467Z,22.33
2023-05-08T08:26:28.876Z,22.22
2023-05-08T08:29:31.568Z,22.07
2023-05-08T08:32:34.024Z,21.93
2023-05-08T08:35:36.530Z,22.08
2023-05-08T08:38:38.976Z,21.83
2023-05-08T08:41:41.451Z,21.78
2023-05-08T08:44:43.923Z,21.65
2023-05-08T08:47:48.452Z,21.66
2023-05-08T08:50:53.973Z,21.88
2023-05-08T08:54:16.967Z,21.53
2023-05-08T08:57:20.496Z,21.48
2023-05-08T09:00:28.409Z,21.42
2023-05-08T09:03:34.216Z,21.36
2023-05-08T09:06:37.746Z,21.49
2023-05-08T09:09:45.593Z,21.61
2023-05-08T09:12:50.146Z,21.58
2023-05-08T09:15:58.942Z,21.54
2023-05-08T09:19:03.875Z,21.17
2023-05-08T09:22:09.296Z,21.37
2023-05-08T09:25:13.869Z,21.41
2023-05-08T09:28:22.891Z,21.46
2023-05-08T09:31:35.422Z,21.44
2023-05-08T09:34:37.876Z,21.42
2023-05-08T09:37:50.252Z,21.40
2023-05-08T09:41:10.241Z,21.38
2023-05-08T09:44:12.939Z,21.27
2023-05-08T09:47:17.300Z,21.33
2023-05-08T09:50:19.737Z,21.24
2023-05-08T09:53:31.223Z,21.29
2023-05-08T09:56:33.716Z,21.26
2023-05-08T09:59:37.197Z,21.23
2023-05-08T10:02:58.129Z,21.04
2023-05-08T10:06:13.466Z,20.90
2023-05-08T10:09:16.285Z,21.02
2023-05-08T10:12:18.899Z,21.08
2023-05-08T10:15:28.507Z,21.13
2023-05-08T10:18:36.004Z,21.05
2023-05-08T10:21:39.298Z,21.08
2023-05-08T10:24:46.536Z,21.01
2023-05-08T10:28:13.961Z,21.01
2023-05-08T10:31:18.677Z,20.99
2023-05-08T10:34:22.708Z,20.95
2023-05-08T10:37:25.524Z,20.85
2023-05-08T10:40:27.891Z,20.88
2023-05-08T10:43:32.168Z,20.95
2023-05-08T10:46:58.355Z,20.96
2023-05-08T10:50:27.098Z,20.95
2023-05-08T10:53:37.840Z,20.92
2023-05-08T10:56:40.278Z,20.65
2023-05-08T10:59:47.099Z,20.89
2023-05-08T11:02:49.697Z,20.87
2023-05-08T11:05:53.822Z,20.66
2023-05-08T11:08:57.303Z,20.78
2023-05-08T11:12:21.326Z,20.79
2023-05-08T11:15:37.680Z,20.84
2023-05-08T11:19:18.669Z,20.67
2023-05-08T11:22:29.423Z,20.81
2023-05-08T11:25:44.995Z,20.72
2023-05-08T11:28:53.945Z,20.81
2023-05-08T11:31:56.480Z,20.73
2023-05-08T11:34:58.933Z,20.79
2023-05-08T11:38:19.751Z,20.74
2023-05-08T11:41:22.747Z,20.74
2023-05-08T11:44:26.349Z,20.74
2023-05-08T11:47:34.633Z,20.49
2023-05-08T11:50:46.932Z,20.24
2023-05-08T11:53:49.338Z,20.49
2023-05-08T11:56:53.740Z,20.72
2023-05-08T11:59:59.684Z,20.69
2023-05-08T12:03:07.478Z,20.73
2023-05-08T12:06:09.999Z,20.69
2023-05-08T12:09:15.156Z,20.69
2023-05-08T12:12:17.499Z,20.62
2023-05-08T12:15:19.933Z,20.64
2023-05-08T12:18:23.869Z,20.61
2023-05-08T12:21:27.654Z,20.59
2023-05-08T12:24:30.786Z,20.55
2023-05-08T12:27:33.209Z,20.50
2023-05-08T12:30:36.297Z,20.59
2023-05-08T12:33:39.249Z,20.61
2023-05-08T12:36:41.630Z,20.52
2023-05-08T12:39:44.696Z,20.58
2023-05-08T12:42:51.180Z,20.57
2023-05-08T12:45:53.612Z,20.60
2023-05-08T12:49:05.072Z,20.49
2023-05-08T12:52:12.052Z,20.37
2023-05-08T12:55:28.277Z,20.54
2023-05-08T12:58:33.856Z,20.55
2023-05-08T13:01:36.435Z,20.44
2023-05-08T13:04:39.086Z,20.49
2023-05-08T13:07:41.616Z,20.41
2023-05-08T13:10:54.620Z,20.56
2023-05-08T13:13:56.971Z,20.55
2023-05-08T13:17:00.112Z,20.46
2023-05-08T13:20:05.970Z,20.46
2023-05-08T13:23:09.757Z,20.37
2023-05-08T13:26:12.103Z,20.46
2023-05-08T13:29:14.541Z,20.25
2023-05-08T13:32:16.967Z,20.33
2023-05-08T13:35:20.082Z,20.28
2023-05-08T13:38:22.546Z,20.26
2023-05-08T13:41:25.006Z,20.00
2023-05-08T13:44:27.423Z,20.18
2023-05-08T13:47:29.784Z,20.24
2023-05-08T13:50:38.486Z,20.14
2023-05-08T13:53:40.928Z,20.15
2023-05-08T13:56:43.998Z,20.16
2023-05-08T13:59:47.337Z,20.27
2023-05-08T14:02:52.308Z,20.15
2023-05-08T14:05:55.906Z,20.04
2023-05-08T14:08:58.308Z,20.29
2023-05-08T14:12:00.770Z,20.20
2023-05-08T14:15:09.061Z,20.31
2023-05-08T14:18:15.203Z,20.18
2023-05-08T14:21:20.743Z,20.17
2023-05-08T14:24:23.092Z,20.21
2023-05-08T14:27:25.508Z,20.09
2023-05-08T14:30:27.916Z,20.03
2023-05-08T14:33:30.617Z,20.11
2023-05-08T14:36:33.155Z,20.09
2023-05-08T14:39:35.756Z,19.97
2023-05-08T14:42:38.597Z,20.00
2023-05-08T14:45:41.099Z,20.15
2023-05-08T14:48:43.454Z,20.10
2023-05-08T14:51:45.819Z,20.01
2023-05-08T14:54:53.420Z,20.03
2023-05-08T14:57:56.571Z,20.00
2023-05-08T15:00:59.017Z,19.90
2023-05-08T15:04:01.541Z,20.09
2023-05-08T15:07:05.386Z,20.09
2023-05-08T15:10:07.995Z,20.00
2023-05-08T15:13:10.414Z,20.08
2023-05-08T15:16:12.900Z,19.90
2023-05-08T15:19:15.388Z,20.09
2023-05-08T15:22:20.625Z,20.00
2023-05-08T15:25:22.982Z,19.99
2023-05-08T15:28:25.526Z,19.92
2023-05-08T15:31:28.018Z,19.99
2023-05-08T15:34:32.836Z,19.95
2023-05-08T15:37:37.164Z,19.89
2023-05-08T15:40:39.811Z,19.94
2023-05-08T15:43:42.646Z,19.84
2023-05-08T15:46:45.024Z,19.92
2023-05-08T15:49:47.380Z,19.79
2023-05-08T15:52:49.924Z,19.77
2023-05-08T15:55:52.297Z,19.84
2023-05-08T15:58:54.657Z,19.78
2023-05-08T16:01:57.050Z,19.75
2023-05-08T16:04:59.475Z,19.67
2023-05-08T16:08:01.993Z,19.72
2023-05-08T16:11:04.486Z,19.83
2023-05-08T16:14:07.009Z,19.76
2023-05-08T16:17:09.465Z,19.69
2023-05-08T16:20:12.210Z,19.62
2023-05-08T16:23:14.975Z,19.75
2023-05-08T16:26:17.338Z,19.59
2023-05-08T16:29:19.754Z,19.69
2023-05-08T16:32:22.270Z,19.66
2023-05-08T16:35:24.758Z,19.70
2023-05-08T16:38:27.147Z,19.68
2023-05-08T16:41:29.482Z,19.53
2023-05-08T16:44:32.382Z,19.50
2023-05-08T16:47:35.211Z,19.53
2023-05-08T16:50:37.711Z,19.45
2023-05-08T16:53:40.096Z,19.58
2023-05-08T16:56:42.645Z,19.43
2023-05-08T16:59:45.038Z,19.45
2023-05-08T17:02:47.443Z,19.53
2023-05-08T17:05:49.928Z,19.50
2023-05-08T17:08:52.380Z,19.42
2023-05-08T17:11:54.917Z,19.32
2023-05-08T17:14:57.302Z,19.37
2023-05-08T17:17:59.717Z,19.29
2023-05-08T17:21:02.068Z,19.26
2023-05-08T17:24:04.859Z,19.38
2023-05-08T17:27:08.143Z,19.36
2023-05-08T17:30:12.262Z,19.19
2023-05-08T17:33:14.938Z,19.32
2023-05-08T17:36:17.445Z,19.28
2023-05-08T17:39:21.764Z,19.07
2023-05-08T17:42:24.303Z,19.11
2023-05-08T17:45:26.824Z,19.22
2023-05-08T17:48:29.271Z,19.14
2023-05-08T17:51:31.642Z,19.11
2023-05-08T17:54:34.042Z,19.06
2023-05-08T17:57:36.449Z,19.12
2023-05-08T18:00:38.995Z,19.00
2023-05-08T18:03:41.888Z,19.07
2023-05-08T18:06:47.451Z,18.89
2023-05-08T18:09:49.796Z,18.97
2023-05-08T18:12:52.502Z,18.92
2023-05-08T18:15:55.270Z,18.89
2023-05-08T18:18:57.776Z,18.93
2023-05-08T18:22:00.203Z,18.95
2023-05-08T18:25:03.791Z,18.79
2023-05-08T18:28:06.360Z,18.93
2023-05-08T18:31:08.973Z,18.87
2023-05-08T18:34:11.792Z,18.82
2023-05-08T18:37:14.217Z,18.69
2023-05-08T18:40:16.790Z,18.71
2023-05-08T18:43:19.307Z,18.62
2023-05-08T18:46:21.695Z,18.72
2023-05-08T18:49:24.353Z,18.64
2023-05-08T18:52:27.029Z,18.62
2023-05-08T18:55:29.511Z,18.74
2023-05-08T18:58:31.934Z,18.73
2023-05-08T19:01:34.447Z,18.64
2023-05-08T19:04:36.973Z,18.73
2023-05-08T19:07:39.730Z,18.65
2023-05-08T19:10:42.284Z,18.72
2023-05-08T19:13:44.735Z,18.59
2023-05-08T19:16:47.178Z,18.58
2023-05-08T19:19:51.853Z,18.63
2023-05-08T19:22:54.553Z,18.58
2023-05-08T19:25:56.952Z,18.54
2023-05-08T19:28:59.424Z,18.55
2023-05-08T19:32:01.858Z,18.63
2023-05-08T19:35:04.595Z,18.51
2023-05-08T19:38:07.076Z,18.58
2023-05-08T19:41:11.485Z,18.56
2023-05-08T19:44:13.881Z,18.59
2023-05-08T19:47:16.697Z,18.50
2023-05-08T19:50:19.116Z,18.49
2023-05-08T19:53:21.602Z,18.44
2023-05-08T19:56:23.994Z,18.46
2023-05-08T19:59:26.497Z,18.42
2023-05-08T20:02:30.325Z,18.39
2023-05-08T20:05:32.827Z,18.47
2023-05-08T20:08:35.271Z,18.41
2023-05-08T20:11:37.616Z,18.49
2023-05-08T20:14:40.003Z,18.47
2023-05-08T20:17:42.566Z,18.28
2023-05-08T20:20:46.163Z,18.42
2023-05-08T20:23:48.614Z,18.30
2023-05-08T20:26:54.487Z,18.37
2023-05-08T20:29:56.847Z,18.39
2023-05-08T20:33:04.623Z,18.35
2023-05-08T20:36:07.303Z,18.38
2023-05-08T20:39:10.066Z,18.34
2023-05-08T20:42:12.639Z,18.31
2023-05-08T20:45:15.076Z,18.34
2023-05-08T20:48:17.493Z,18.34
2023-05-08T20:51:19.955Z,18.22
2023-05-08T20:54:22.302Z,18.28
2023-05-08T20:57:25.109Z,18.19
2023-05-08T21:00:27.516Z,18.32
2023-05-08T21:03:29.837Z,18.32
2023-05-08T21:06:32.291Z,18.31
2023-05-08T21:09:34.696Z,18.23
2023-05-08T21:12:37.080Z,18.28
2023-05-08T21:15:40.510Z,18.29
2023-05-08T21:18:42.933Z,18.30
2023-05-08T21:21:46.348Z,18.29
2023-05-08T21:24:48.682Z,18.29
2023-05-08T21:27:52.360Z,18.27
2023-05-08T21:30:56.338Z,18.27
2023-05-08T21:33:58.839Z,18.26
2023-05-08T21:37:01.210Z,18.27
2023-05-08T21:40:04.701Z,18.23
2023-05-08T21:43:07.174Z,18.14
2023-05-08T21:46:09.627Z,18.15
2023-05-08T21:49:12.111Z,18.11
2023-05-08T21:52:14.593Z,18.11
2023-05-08T21:55:17.034Z,18.05
2023-05-08T21:58:19.417Z,18.20
2023-05-08T22:01:21.843Z,18.19
2023-05-08T22:04:24.297Z,18.06
2023-05-08T22:07:26.744Z,18.17
2023-05-08T22:10:29.123Z,18.11
2023-05-08T22:13:31.566Z,18.01
2023-05-08T22:16:34.520Z,18.13
2023-05-08T22:19:36.911Z,18.13
2023-05-08T22:22:39.299Z,18.04
2023-05-08T22:25:41.718Z,18.03
2023-05-08T22:28:44.036Z,18.01
2023-05-08T22:31:47.496Z,18.04
2023-05-08T22:34:50.112Z,17.93
2023-05-08T22:37:53.483Z,17.91
2023-05-08T22:40:57.510Z,18.05
2023-05-08T22:44:00.185Z,18.03
2023-05-08T22:47:02.684Z,18.03
2023-05-08T22:50:08.601Z,18.01
2023-05-08T22:53:10.956Z,18.00
2023-05-08T22:56:15.093Z,17.98
2023-05-08T22:59:17.479Z,17.78
2023-05-08T23:02:19.806Z,17.96
2023-05-08T23:05:22.983Z,17.80
2023-05-08T23:08:25.562Z,17.77
2023-05-08T23:11:28.613Z,17.93
2023-05-08T23:14:31.072Z,17.85
2023-05-08T23:17:33.534Z,17.78
2023-05-08T23:20:35.941Z,17.89
2023-05-08T23:23:38.370Z,17.79
2023-05-08T23:26:42.135Z,17.86
2023-05-08T23:29:44.600Z,17.77
2023-05-08T23:32:47.238Z,17.73
2023-05-08T23:35:49.694Z,17.69
2023-05-08T23:38:52.057Z,17.74
2023-05-08T23:41:54.567Z,17.80
2023-05-08T23:44:56.906Z,17.76
2023-05-08T23:47:59.300Z,17.78
2023-05-08T23:51:01.728Z,17.70
2023-05-08T23:54:04.834Z,17.57
2023-05-08T23:57:07.234Z,17.74
